OOCL Nagoya — VRFX8 — position and weather

sailwx.info

Track history (hours):
 
Tides and Currents Weather Stations Pressure Air Temp Water Temp Dewpoint Dewpoint Depression Visibility Wind Speed Wind Dir Waves Ship Positions

OOCL Nagoya

Last reported at 2014-Jul-31 04:20 UTC. Time now 2014-Jul-31 05:29 UTC.
Position N 34°38' E 135°26'.

Length 260 m; draft 10.4 m.

Type: Cargo ship. MMSI: 477627900.

Date/timePositionNaut miles runAvg speedWind from/ knotsBaromVisibWave heightAir tempDewpointWater temp
2014-Jul-31 04:20N 34°38' E 135°26'0 0.0
2014-Jul-31 02:32N 34°38' E 135°26'0 0.0
2014-Jul-31 01:32N 34°38' E 135°26'0 0.0
2014-Jul-31 00:32N 34°38' E 135°26'0 0.0
2014-Jul-30 23:29N 34°38' E 135°26'3 3.4
2014-Jul-30 22:33N 34°38' E 135°23'1010.3
2014-Jul-30 21:33N 34°31' E 135°13'1616.4
2014-Jul-30 20:34N 34°19' E 135°00'1313.1
2014-Jul-30 19:33N 34°06' E 134°59'2612.9
2014-Jul-30 17:31N 33°41' E 134°47'29016.5
2014-Jul-30 00:00N 30°42' E 130°18'66019.5 080 / 141008.010.8 1.029.028.0
2014-Jul-28 14:11N 24°52' E 119°45'3319.9
2014-Jul-28 12:33N 24°36' E 119°14'2220.6
2014-Jul-28 11:28N 24°24' E 118°53'1820.2
2014-Jul-28 10:33N 24°17' E 118°35'1919.0
2014-Jul-28 09:33N 24°18' E 118°14'1413.8
2014-Jul-28 08:33N 24°27' E 118°03'3 3.1
2014-Jul-28 07:27N 24°31' E 118°05'0 0.0
2014-Jul-28 06:33N 24°31' E 118°05'0 0.0
2014-Jul-28 05:27N 24°31' E 118°05'0 0.0
2014-Jul-28 04:33N 24°31' E 118°05'0 0.0
2014-Jul-28 03:33N 24°31' E 118°05'0 0.0
2014-Jul-28 02:33N 24°31' E 118°05'0 0.0
2014-Jul-28 01:33N 24°31' E 118°05'0 0.0
2014-Jul-28 00:33N 24°31' E 118°05'0 0.0
2014-Jul-27 23:33N 24°31' E 118°05'0 0.0
2014-Jul-27 22:33N 24°31' E 118°05'3 2.9
2014-Jul-27 21:33N 24°28' E 118°03'9 9.4
2014-Jul-27 20:33N 24°21' E 118°10'1313.2
2014-Jul-27 19:33N 24°11' E 118°19'1514.6
2014-Jul-27 18:33N 23°57' E 118°13'1515.1
2014-Jul-27 17:33N 23°46' E 118°02'1918.8
2014-Jul-27 16:33N 23°33' E 117°47'4321.3
2014-Jul-27 14:33N 23°06' E 117°11'2121.2
2014-Jul-27 13:33N 22°53' E 116°54'2821.2
2014-Jul-27 12:14N 22°35' E 116°29'13418.9
2014-Jul-27 05:08N 22°18' E 114°06'2 0.1
2014-Jul-26 08:13N 22°19' E 114°07'3 1.5
2014-Jul-26 06:26N 22°20' E 114°04'0 0.2
2014-Jul-26 05:14N 22°20' E 114°04'0 0.3
2014-Jul-26 04:20N 22°20' E 114°04'0 0.0
2014-Jul-26 01:14N 22°20' E 114°04'0 0.1
2014-Jul-26 00:32N 22°20' E 114°04'0 0.1
2014-Jul-25 23:32N 22°20' E 114°04'0 0.0
2014-Jul-25 22:26N 22°20' E 114°04'0 0.0
2014-Jul-25 21:20N 22°20' E 114°04'0 0.0
2014-Jul-25 20:32N 22°20' E 114°04'0 0.1
2014-Jul-25 19:26N 22°20' E 114°04'0 0.1
2014-Jul-25 18:26N 22°20' E 114°04'0 0.0
2014-Jul-25 16:32N 22°20' E 114°04'0 0.2
2014-Jul-25 15:26N 22°20' E 114°04'0 0.0
2014-Jul-25 14:32N 22°20' E 114°04'0 0.1
2014-Jul-25 13:32N 22°20' E 114°04'0 0.1
2014-Jul-25 12:32N 22°20' E 114°04'0 0.0
2014-Jul-25 11:32N 22°20' E 114°04'0 0.1
2014-Jul-25 10:32N 22°20' E 114°04'1010.5
2014-Jul-25 09:33N 22°23' E 113°54'4 3.8
2014-Jul-25 08:29N 22°27' E 113°53'0 0.0
2014-Jul-25 07:29N 22°27' E 113°53'0 0.0
2014-Jul-25 06:29N 22°27' E 113°53'0 0.0
2014-Jul-25 05:29N 22°27' E 113°53'0 0.0
2014-Jul-25 04:29N 22°27' E 113°53'0 0.0
2014-Jul-25 03:32N 22°27' E 113°53'0 0.0
2014-Jul-25 02:32N 22°27' E 113°53'0 0.0
2014-Jul-25 01:32N 22°27' E 113°53'0 0.0
2014-Jul-25 00:29N 22°27' E 113°53'0 0.0
2014-Jul-24 23:26N 22°27' E 113°53'0 0.0
2014-Jul-24 22:26N 22°27' E 113°53'0 0.0
2014-Jul-24 21:32N 22°27' E 113°53'0 0.0
2014-Jul-24 20:32N 22°27' E 113°53'2 2.4
2014-Jul-24 19:33N 22°25' E 113°53'12 8.8
2014-Jul-24 18:12N 22°20' E 114°05'  
Track history (hours):
 
Tides and Currents Weather Stations Pressure Air Temp Water Temp Dewpoint Dewpoint Depression Visibility Wind Speed Wind Dir Waves Ship Positions

OOCL Nagoya

Last reported at 2014-Jul-31 04:20 UTC. Time now 2014-Jul-31 05:29 UTC.
Position N 34°38' E 135°26'.

Length 260 m; draft 10.4 m.

Type: Cargo ship. MMSI: 477627900.

Date/timePositionNaut miles runAvg speedWind from/ knotsBaromVisibWave heightAir tempDewpointWater temp
2014-Jul-31 04:20N 34°38' E 135°26'0 0.0
2014-Jul-31 02:32N 34°38' E 135°26'0 0.0
2014-Jul-31 01:32N 34°38' E 135°26'0 0.0
2014-Jul-31 00:32N 34°38' E 135°26'0 0.0
2014-Jul-30 23:29N 34°38' E 135°26'3 3.4
2014-Jul-30 22:33N 34°38' E 135°23'1010.3
2014-Jul-30 21:33N 34°31' E 135°13'1616.4
2014-Jul-30 20:34N 34°19' E 135°00'1313.1
2014-Jul-30 19:33N 34°06' E 134°59'2612.9
2014-Jul-30 17:31N 33°41' E 134°47'29016.5
2014-Jul-30 00:00N 30°42' E 130°18'66019.5 080 / 141008.010.8 1.029.028.0
2014-Jul-28 14:11N 24°52' E 119°45'3319.9
2014-Jul-28 12:33N 24°36' E 119°14'2220.6
2014-Jul-28 11:28N 24°24' E 118°53'1820.2
2014-Jul-28 10:33N 24°17' E 118°35'1919.0
2014-Jul-28 09:33N 24°18' E 118°14'1413.8
2014-Jul-28 08:33N 24°27' E 118°03'3 3.1
2014-Jul-28 07:27N 24°31' E 118°05'0 0.0
2014-Jul-28 06:33N 24°31' E 118°05'0 0.0
2014-Jul-28 05:27N 24°31' E 118°05'0 0.0
2014-Jul-28 04:33N 24°31' E 118°05'0 0.0
2014-Jul-28 03:33N 24°31' E 118°05'0 0.0
2014-Jul-28 02:33N 24°31' E 118°05'0 0.0
2014-Jul-28 01:33N 24°31' E 118°05'0 0.0
2014-Jul-28 00:33N 24°31' E 118°05'0 0.0
2014-Jul-27 23:33N 24°31' E 118°05'0 0.0
2014-Jul-27 22:33N 24°31' E 118°05'3 2.9
2014-Jul-27 21:33N 24°28' E 118°03'9 9.4
2014-Jul-27 20:33N 24°21' E 118°10'1313.2
2014-Jul-27 19:33N 24°11' E 118°19'1514.6
2014-Jul-27 18:33N 23°57' E 118°13'1515.1
2014-Jul-27 17:33N 23°46' E 118°02'1918.8
2014-Jul-27 16:33N 23°33' E 117°47'4321.3
2014-Jul-27 14:33N 23°06' E 117°11'2121.2
2014-Jul-27 13:33N 22°53' E 116°54'2821.2
2014-Jul-27 12:14N 22°35' E 116°29'13418.9
2014-Jul-27 05:08N 22°18' E 114°06'2 0.1
2014-Jul-26 08:13N 22°19' E 114°07'3 1.5
2014-Jul-26 06:26N 22°20' E 114°04'0 0.2
2014-Jul-26 05:14N 22°20' E 114°04'0 0.3
2014-Jul-26 04:20N 22°20' E 114°04'0 0.0
2014-Jul-26 01:14N 22°20' E 114°04'0 0.1
2014-Jul-26 00:32N 22°20' E 114°04'0 0.1
2014-Jul-25 23:32N 22°20' E 114°04'0 0.0
2014-Jul-25 22:26N 22°20' E 114°04'0 0.0
2014-Jul-25 21:20N 22°20' E 114°04'0 0.0
2014-Jul-25 20:32N 22°20' E 114°04'0 0.1
2014-Jul-25 19:26N 22°20' E 114°04'0 0.1
2014-Jul-25 18:26N 22°20' E 114°04'0 0.0
2014-Jul-25 16:32N 22°20' E 114°04'0 0.2
2014-Jul-25 15:26N 22°20' E 114°04'0 0.0
2014-Jul-25 14:32N 22°20' E 114°04'0 0.1
2014-Jul-25 13:32N 22°20' E 114°04'0 0.1
2014-Jul-25 12:32N 22°20' E 114°04'0 0.0
2014-Jul-25 11:32N 22°20' E 114°04'0 0.1
2014-Jul-25 10:32N 22°20' E 114°04'1010.5
2014-Jul-25 09:33N 22°23' E 113°54'4 3.8
2014-Jul-25 08:29N 22°27' E 113°53'0 0.0
2014-Jul-25 07:29N 22°27' E 113°53'0 0.0
2014-Jul-25 06:29N 22°27' E 113°53'0 0.0
2014-Jul-25 05:29N 22°27' E 113°53'0 0.0
2014-Jul-25 04:29N 22°27' E 113°53'0 0.0
2014-Jul-25 03:32N 22°27' E 113°53'0 0.0
2014-Jul-25 02:32N 22°27' E 113°53'0 0.0
2014-Jul-25 01:32N 22°27' E 113°53'0 0.0
2014-Jul-25 00:29N 22°27' E 113°53'0 0.0
2014-Jul-24 23:26N 22°27' E 113°53'0 0.0
2014-Jul-24 22:26N 22°27' E 113°53'0 0.0
2014-Jul-24 21:32N 22°27' E 113°53'0 0.0
2014-Jul-24 20:32N 22°27' E 113°53'2 2.4
2014-Jul-24 19:33N 22°25' E 113°53'12 8.8
2014-Jul-24 18:12N 22°20' E 114°05'  

Dump ship's entire track history